sensor_id;sensor_type;location;lat;lon;timestamp;P1;durP1;ratioP1;P2;durP2;ratioP2
25073;SDS011;13066;52.042;5.648;2023-08-20T00:00:50;14.20;;;6.10;;
25073;SDS011;13066;52.042;5.648;2023-08-20T00:03:18;20.77;;;5.80;;
25073;SDS011;13066;52.042;5.648;2023-08-20T00:05:47;13.60;;;5.82;;
25073;SDS011;13066;52.042;5.648;2023-08-20T00:08:15;12.63;;;5.65;;
25073;SDS011;13066;52.042;5.648;2023-08-20T00:10:43;16.02;;;5.03;;
25073;SDS011;13066;52.042;5.648;2023-08-20T00:13:13;12.07;;;5.47;;
25073;SDS011;13066;52.042;5.648;2023-08-20T00:15:41;9.43;;;4.90;;
25073;SDS011;13066;52.042;5.648;2023-08-20T00:18:10;12.80;;;5.10;;
25073;SDS011;13066;52.042;5.648;2023-08-20T00:20:39;14.32;;;5.40;;
25073;SDS011;13066;52.042;5.648;2023-08-20T00:23:08;10.15;;;4.53;;
25073;SDS011;13066;52.042;5.648;2023-08-20T00:25:36;11.75;;;4.70;;
25073;SDS011;13066;52.042;5.648;2023-08-20T00:28:05;15.20;;;5.35;;
25073;SDS011;13066;52.042;5.648;2023-08-20T00:30:34;14.95;;;4.95;;
25073;SDS011;13066;52.042;5.648;2023-08-20T00:33:02;12.35;;;4.80;;
25073;SDS011;13066;52.042;5.648;2023-08-20T00:35:30;15.75;;;5.13;;
25073;SDS011;13066;52.042;5.648;2023-08-20T00:37:59;12.80;;;4.63;;
25073;SDS011;13066;52.042;5.648;2023-08-20T00:40:27;8.60;;;3.92;;
25073;SDS011;13066;52.042;5.648;2023-08-20T00:42:55;10.57;;;4.45;;
25073;SDS011;13066;52.042;5.648;2023-08-20T00:45:23;10.60;;;4.20;;
25073;SDS011;13066;52.042;5.648;2023-08-20T00:47:53;13.43;;;4.47;;
25073;SDS011;13066;52.042;5.648;2023-08-20T00:50:21;12.20;;;4.28;;
25073;SDS011;13066;52.042;5.648;2023-08-20T00:52:49;13.82;;;4.57;;
25073;SDS011;13066;52.042;5.648;2023-08-20T00:55:17;11.27;;;4.88;;
25073;SDS011;13066;52.042;5.648;2023-08-20T00:57:45;12.30;;;4.93;;
25073;SDS011;13066;52.042;5.648;2023-08-20T01:00:13;12.77;;;4.60;;
25073;SDS011;13066;52.042;5.648;2023-08-20T01:02:42;13.30;;;4.65;;
25073;SDS011;13066;52.042;5.648;2023-08-20T01:05:15;9.75;;;3.80;;
25073;SDS011;13066;52.042;5.648;2023-08-20T01:07:46;10.20;;;4.57;;
25073;SDS011;13066;52.042;5.648;2023-08-20T01:10:19;11.10;;;4.32;;
25073;SDS011;13066;52.042;5.648;2023-08-20T01:12:52;12.48;;;4.53;;
25073;SDS011;13066;52.042;5.648;2023-08-20T01:15:21;10.75;;;4.28;;
25073;SDS011;13066;52.042;5.648;2023-08-20T01:17:49;10.65;;;4.60;;
25073;SDS011;13066;52.042;5.648;2023-08-20T01:20:19;13.98;;;4.32;;
25073;SDS011;13066;52.042;5.648;2023-08-20T01:26:04;11.05;;;4.20;;
25073;SDS011;13066;52.042;5.648;2023-08-20T01:28:37;11.23;;;4.38;;
25073;SDS011;13066;52.042;5.648;2023-08-20T01:31:09;12.07;;;4.33;;
25073;SDS011;13066;52.042;5.648;2023-08-20T01:33:37;14.50;;;5.22;;
25073;SDS011;13066;52.042;5.648;2023-08-20T01:36:07;14.32;;;4.95;;
25073;SDS011;13066;52.042;5.648;2023-08-20T01:38:37;18.98;;;5.20;;
25073;SDS011;13066;52.042;5.648;2023-08-20T01:41:05;14.05;;;4.80;;
25073;SDS011;13066;52.042;5.648;2023-08-20T01:43:33;12.18;;;5.03;;
25073;SDS011;13066;52.042;5.648;2023-08-20T01:46:02;11.90;;;4.88;;
25073;SDS011;13066;52.042;5.648;2023-08-20T01:48:30;17.77;;;5.53;;
25073;SDS011;13066;52.042;5.648;2023-08-20T01:50:58;16.50;;;5.25;;
25073;SDS011;13066;52.042;5.648;2023-08-20T01:53:27;16.27;;;5.82;;
25073;SDS011;13066;52.042;5.648;2023-08-20T01:55:55;11.55;;;5.78;;
25073;SDS011;13066;52.042;5.648;2023-08-20T01:58:23;19.17;;;5.80;;
25073;SDS011;13066;52.042;5.648;2023-08-20T02:00:51;12.98;;;5.43;;
25073;SDS011;13066;52.042;5.648;2023-08-20T02:03:21;10.70;;;5.80;;
25073;SDS011;13066;52.042;5.648;2023-08-20T02:05:49;10.55;;;5.25;;
25073;SDS011;13066;52.042;5.648;2023-08-20T02:08:17;17.42;;;5.90;;
25073;SDS011;13066;52.042;5.648;2023-08-20T02:10:45;11.40;;;5.88;;
25073;SDS011;13066;52.042;5.648;2023-08-20T02:13:13;11.45;;;5.18;;
25073;SDS011;13066;52.042;5.648;2023-08-20T02:15:41;12.88;;;5.60;;
25073;SDS011;13066;52.042;5.648;2023-08-20T02:18:09;10.82;;;5.47;;
25073;SDS011;13066;52.042;5.648;2023-08-20T02:20:41;18.50;;;6.28;;
25073;SDS011;13066;52.042;5.648;2023-08-20T02:23:11;16.38;;;5.82;;
25073;SDS011;13066;52.042;5.648;2023-08-20T02:25:38;14.93;;;6.30;;
25073;SDS011;13066;52.042;5.648;2023-08-20T02:28:06;13.68;;;6.40;;
25073;SDS011;13066;52.042;5.648;2023-08-20T02:30:38;16.17;;;5.72;;
25073;SDS011;13066;52.042;5.648;2023-08-20T02:33:08;14.33;;;5.83;;
25073;SDS011;13066;52.042;5.648;2023-08-20T02:35:36;13.70;;;6.10;;
25073;SDS011;13066;52.042;5.648;2023-08-20T02:38:06;11.85;;;5.32;;
25073;SDS011;13066;52.042;5.648;2023-08-20T02:40:40;10.20;;;5.32;;
25073;SDS011;13066;52.042;5.648;2023-08-20T02:43:08;18.90;;;6.03;;
25073;SDS011;13066;52.042;5.648;2023-08-20T02:45:40;13.43;;;5.97;;
25073;SDS011;13066;52.042;5.648;2023-08-20T02:48:10;15.15;;;5.82;;
25073;SDS011;13066;52.042;5.648;2023-08-20T02:50:38;16.13;;;6.18;;
25073;SDS011;13066;52.042;5.648;2023-08-20T02:53:07;17.90;;;6.75;;
25073;SDS011;13066;52.042;5.648;2023-08-20T02:55:35;19.50;;;8.00;;
25073;SDS011;13066;52.042;5.648;2023-08-20T02:58:03;15.10;;;6.97;;
25073;SDS011;13066;52.042;5.648;2023-08-20T03:00:34;16.75;;;7.15;;
25073;SDS011;13066;52.042;5.648;2023-08-20T03:03:03;16.30;;;7.13;;
25073;SDS011;13066;52.042;5.648;2023-08-20T03:05:35;16.42;;;6.40;;
25073;SDS011;13066;52.042;5.648;2023-08-20T03:08:04;15.30;;;6.72;;
25073;SDS011;13066;52.042;5.648;2023-08-20T03:10:34;11.00;;;6.10;;
25073;SDS011;13066;52.042;5.648;2023-08-20T03:13:02;15.50;;;6.95;;
25073;SDS011;13066;52.042;5.648;2023-08-20T03:15:31;12.70;;;6.30;;
25073;SDS011;13066;52.042;5.648;2023-08-20T03:17:58;16.17;;;6.25;;
25073;SDS011;13066;52.042;5.648;2023-08-20T03:20:26;14.50;;;6.55;;
25073;SDS011;13066;52.042;5.648;2023-08-20T03:22:57;14.93;;;6.53;;
25073;SDS011;13066;52.042;5.648;2023-08-20T03:25:25;11.40;;;6.15;;
25073;SDS011;13066;52.042;5.648;2023-08-20T03:27:55;14.10;;;6.03;;
25073;SDS011;13066;52.042;5.648;2023-08-20T03:30:23;16.30;;;5.88;;
25073;SDS011;13066;52.042;5.648;2023-08-20T03:32:51;18.75;;;6.47;;
25073;SDS011;13066;52.042;5.648;2023-08-20T03:35:20;14.82;;;5.97;;
25073;SDS011;13066;52.042;5.648;2023-08-20T03:37:48;12.98;;;5.50;;
25073;SDS011;13066;52.042;5.648;2023-08-20T03:40:16;14.30;;;6.43;;
25073;SDS011;13066;52.042;5.648;2023-08-20T03:42:44;10.95;;;5.85;;
25073;SDS011;13066;52.042;5.648;2023-08-20T03:45:17;13.68;;;6.47;;
25073;SDS011;13066;52.042;5.648;2023-08-20T03:47:45;13.15;;;6.05;;
25073;SDS011;13066;52.042;5.648;2023-08-20T03:50:16;14.90;;;6.97;;
25073;SDS011;13066;52.042;5.648;2023-08-20T03:52:44;14.32;;;7.50;;
25073;SDS011;13066;52.042;5.648;2023-08-20T03:55:12;18.08;;;7.10;;
25073;SDS011;13066;52.042;5.648;2023-08-20T03:57:40;11.73;;;6.10;;
25073;SDS011;13066;52.042;5.648;2023-08-20T04:00:09;16.17;;;6.90;;
25073;SDS011;13066;52.042;5.648;2023-08-20T04:02:43;11.25;;;6.38;;
25073;SDS011;13066;52.042;5.648;2023-08-20T04:05:11;16.27;;;6.97;;
25073;SDS011;13066;52.042;5.648;2023-08-20T04:07:39;15.80;;;6.80;;
25073;SDS011;13066;52.042;5.648;2023-08-20T04:10:07;16.30;;;6.95;;
25073;SDS011;13066;52.042;5.648;2023-08-20T04:12:35;13.73;;;7.68;;
25073;SDS011;13066;52.042;5.648;2023-08-20T04:15:04;13.10;;;7.18;;
25073;SDS011;13066;52.042;5.648;2023-08-20T04:17:32;15.48;;;7.72;;
25073;SDS011;13066;52.042;5.648;2023-08-20T04:20:03;13.75;;;7.70;;
25073;SDS011;13066;52.042;5.648;2023-08-20T04:22:34;18.52;;;8.43;;
25073;SDS011;13066;52.042;5.648;2023-08-20T04:25:04;19.67;;;7.97;;
25073;SDS011;13066;52.042;5.648;2023-08-20T04:27:32;16.73;;;8.02;;
25073;SDS011;13066;52.042;5.648;2023-08-20T04:30:01;13.23;;;7.25;;
25073;SDS011;13066;52.042;5.648;2023-08-20T04:32:29;16.15;;;8.02;;
25073;SDS011;13066;52.042;5.648;2023-08-20T04:34:57;17.02;;;7.72;;
25073;SDS011;13066;52.042;5.648;2023-08-20T04:37:27;18.55;;;7.88;;
25073;SDS011;13066;52.042;5.648;2023-08-20T04:39:56;15.63;;;8.40;;
25073;SDS011;13066;52.042;5.648;2023-08-20T04:42:24;17.60;;;7.93;;
25073;SDS011;13066;52.042;5.648;2023-08-20T04:44:52;14.40;;;7.78;;
25073;SDS011;13066;52.042;5.648;2023-08-20T04:47:21;17.38;;;7.55;;
25073;SDS011;13066;52.042;5.648;2023-08-20T04:49:49;16.55;;;8.43;;
25073;SDS011;13066;52.042;5.648;2023-08-20T04:52:18;14.25;;;8.38;;
25073;SDS011;13066;52.042;5.648;2023-08-20T04:54:48;17.80;;;7.60;;
25073;SDS011;13066;52.042;5.648;2023-08-20T04:57:19;13.20;;;7.13;;
25073;SDS011;13066;52.042;5.648;2023-08-20T04:59:48;15.32;;;8.05;;
25073;SDS011;13066;52.042;5.648;2023-08-20T05:05:01;18.73;;;7.90;;
25073;SDS011;13066;52.042;5.648;2023-08-20T05:07:29;12.90;;;7.25;;
25073;SDS011;13066;52.042;5.648;2023-08-20T05:09:59;20.20;;;8.23;;
25073;SDS011;13066;52.042;5.648;2023-08-20T05:12:28;16.92;;;7.97;;
25073;SDS011;13066;52.042;5.648;2023-08-20T05:14:56;14.93;;;8.25;;
25073;SDS011;13066;52.042;5.648;2023-08-20T05:17:23;18.52;;;8.85;;
25073;SDS011;13066;52.042;5.648;2023-08-20T05:19:51;15.75;;;7.90;;
25073;SDS011;13066;52.042;5.648;2023-08-20T05:22:19;16.60;;;8.45;;
25073;SDS011;13066;52.042;5.648;2023-08-20T05:24:48;17.67;;;7.97;;
25073;SDS011;13066;52.042;5.648;2023-08-20T05:27:17;21.10;;;8.02;;
25073;SDS011;13066;52.042;5.648;2023-08-20T05:29:49;14.82;;;7.82;;
25073;SDS011;13066;52.042;5.648;2023-08-20T05:32:19;18.33;;;8.50;;
25073;SDS011;13066;52.042;5.648;2023-08-20T05:34:47;16.08;;;7.70;;
25073;SDS011;13066;52.042;5.648;2023-08-20T05:37:15;14.80;;;7.50;;
25073;SDS011;13066;52.042;5.648;2023-08-20T05:39:44;18.92;;;8.07;;
25073;SDS011;13066;52.042;5.648;2023-08-20T05:42:13;16.50;;;8.55;;
25073;SDS011;13066;52.042;5.648;2023-08-20T05:44:47;23.97;;;8.40;;
25073;SDS011;13066;52.042;5.648;2023-08-20T05:47:21;23.05;;;8.48;;
25073;SDS011;13066;52.042;5.648;2023-08-20T05:49:50;14.38;;;7.10;;
25073;SDS011;13066;52.042;5.648;2023-08-20T05:52:17;18.13;;;6.90;;
25073;SDS011;13066;52.042;5.648;2023-08-20T05:54:46;18.63;;;8.10;;
25073;SDS011;13066;52.042;5.648;2023-08-20T05:57:14;13.82;;;8.02;;
25073;SDS011;13066;52.042;5.648;2023-08-20T05:59:43;20.08;;;7.25;;
25073;SDS011;13066;52.042;5.648;2023-08-20T06:02:15;20.40;;;7.50;;
25073;SDS011;13066;52.042;5.648;2023-08-20T06:04:43;15.07;;;7.32;;
25073;SDS011;13066;52.042;5.648;2023-08-20T06:07:11;22.20;;;7.28;;
25073;SDS011;13066;52.042;5.648;2023-08-20T06:09:39;20.25;;;7.32;;
25073;SDS011;13066;52.042;5.648;2023-08-20T06:12:07;19.02;;;7.07;;
25073;SDS011;13066;52.042;5.648;2023-08-20T06:14:35;17.40;;;6.78;;
25073;SDS011;13066;52.042;5.648;2023-08-20T06:17:03;21.63;;;7.38;;
25073;SDS011;13066;52.042;5.648;2023-08-20T06:19:33;22.15;;;6.55;;
25073;SDS011;13066;52.042;5.648;2023-08-20T06:22:02;14.35;;;6.07;;
25073;SDS011;13066;52.042;5.648;2023-08-20T06:24:31;13.75;;;5.65;;
25073;SDS011;13066;52.042;5.648;2023-08-20T06:26:59;24.85;;;6.38;;
25073;SDS011;13066;52.042;5.648;2023-08-20T06:29:27;16.58;;;5.47;;
25073;SDS011;13066;52.042;5.648;2023-08-20T06:31:55;18.48;;;6.30;;
25073;SDS011;13066;52.042;5.648;2023-08-20T06:34:23;22.00;;;6.65;;
25073;SDS011;13066;52.042;5.648;2023-08-20T06:36:53;20.67;;;6.40;;
25073;SDS011;13066;52.042;5.648;2023-08-20T06:39:20;18.65;;;6.28;;
25073;SDS011;13066;52.042;5.648;2023-08-20T06:41:49;16.10;;;6.85;;
25073;SDS011;13066;52.042;5.648;2023-08-20T06:44:19;21.45;;;6.05;;
25073;SDS011;13066;52.042;5.648;2023-08-20T06:46:48;19.15;;;6.68;;
25073;SDS011;13066;52.042;5.648;2023-08-20T06:49:16;13.20;;;6.25;;
25073;SDS011;13066;52.042;5.648;2023-08-20T06:51:43;20.25;;;6.00;;
25073;SDS011;13066;52.042;5.648;2023-08-20T06:54:13;16.40;;;6.03;;
25073;SDS011;13066;52.042;5.648;2023-08-20T06:56:42;17.20;;;6.22;;
25073;SDS011;13066;52.042;5.648;2023-08-20T06:59:10;17.25;;;6.40;;
25073;SDS011;13066;52.042;5.648;2023-08-20T07:01:38;18.35;;;5.97;;
25073;SDS011;13066;52.042;5.648;2023-08-20T07:04:06;23.20;;;6.60;;
25073;SDS011;13066;52.042;5.648;2023-08-20T07:06:34;21.10;;;6.15;;
25073;SDS011;13066;52.042;5.648;2023-08-20T07:09:02;19.10;;;5.25;;
25073;SDS011;13066;52.042;5.648;2023-08-20T07:11:32;19.02;;;5.55;;
25073;SDS011;13066;52.042;5.648;2023-08-20T07:14:00;17.92;;;4.90;;
25073;SDS011;13066;52.042;5.648;2023-08-20T07:16:29;24.55;;;4.88;;
25073;SDS011;13066;52.042;5.648;2023-08-20T07:18:57;15.07;;;4.90;;
25073;SDS011;13066;52.042;5.648;2023-08-20T07:21:25;19.73;;;5.22;;
25073;SDS011;13066;52.042;5.648;2023-08-20T07:23:53;17.15;;;4.35;;
25073;SDS011;13066;52.042;5.648;2023-08-20T07:26:21;14.65;;;4.40;;
25073;SDS011;13066;52.042;5.648;2023-08-20T07:28:51;10.07;;;3.63;;
25073;SDS011;13066;52.042;5.648;2023-08-20T07:31:26;13.75;;;4.63;;
25073;SDS011;13066;52.042;5.648;2023-08-20T07:33:55;14.30;;;4.82;;
25073;SDS011;13066;52.042;5.648;2023-08-20T07:36:29;12.95;;;4.45;;
25073;SDS011;13066;52.042;5.648;2023-08-20T07:38:57;14.55;;;4.28;;
25073;SDS011;13066;52.042;5.648;2023-08-20T07:41:28;12.80;;;3.67;;
25073;SDS011;13066;52.042;5.648;2023-08-20T07:43:57;14.00;;;4.10;;
25073;SDS011;13066;52.042;5.648;2023-08-20T07:46:25;13.60;;;3.63;;
25073;SDS011;13066;52.042;5.648;2023-08-20T07:48:53;11.30;;;3.70;;
25073;SDS011;13066;52.042;5.648;2023-08-20T07:51:21;13.32;;;3.80;;
25073;SDS011;13066;52.042;5.648;2023-08-20T07:53:49;16.60;;;3.55;;
25073;SDS011;13066;52.042;5.648;2023-08-20T07:56:17;16.25;;;4.10;;
25073;SDS011;13066;52.042;5.648;2023-08-20T07:58:45;14.50;;;3.70;;
25073;SDS011;13066;52.042;5.648;2023-08-20T08:01:15;13.90;;;3.50;;
25073;SDS011;13066;52.042;5.648;2023-08-20T08:03:43;12.95;;;3.28;;
25073;SDS011;13066;52.042;5.648;2023-08-20T08:06:11;14.50;;;3.20;;
25073;SDS011;13066;52.042;5.648;2023-08-20T08:08:41;8.93;;;2.38;;
25073;SDS011;13066;52.042;5.648;2023-08-20T08:11:10;17.98;;;2.85;;
25073;SDS011;13066;52.042;5.648;2023-08-20T08:13:38;15.82;;;3.08;;
25073;SDS011;13066;52.042;5.648;2023-08-20T08:16:06;13.73;;;2.80;;
25073;SDS011;13066;52.042;5.648;2023-08-20T08:18:35;14.68;;;2.78;;
25073;SDS011;13066;52.042;5.648;2023-08-20T08:21:03;13.25;;;2.67;;
25073;SDS011;13066;52.042;5.648;2023-08-20T08:23:31;10.18;;;2.60;;
25073;SDS011;13066;52.042;5.648;2023-08-20T08:25:59;8.18;;;2.10;;
25073;SDS011;13066;52.042;5.648;2023-08-20T08:28:27;6.90;;;2.03;;
25073;SDS011;13066;52.042;5.648;2023-08-20T08:30:55;7.93;;;2.20;;
25073;SDS011;13066;52.042;5.648;2023-08-20T08:33:24;7.82;;;1.80;;
25073;SDS011;13066;52.042;5.648;2023-08-20T08:35:53;10.15;;;1.90;;
25073;SDS011;13066;52.042;5.648;2023-08-20T08:38:21;8.20;;;1.77;;
25073;SDS011;13066;52.042;5.648;2023-08-20T08:40:52;11.65;;;2.15;;
25073;SDS011;13066;52.042;5.648;2023-08-20T08:43:21;7.88;;;1.90;;
25073;SDS011;13066;52.042;5.648;2023-08-20T08:45:49;12.32;;;1.80;;
25073;SDS011;13066;52.042;5.648;2023-08-20T08:48:17;8.00;;;2.03;;
25073;SDS011;13066;52.042;5.648;2023-08-20T08:50:46;9.27;;;2.22;;
25073;SDS011;13066;52.042;5.648;2023-08-20T08:53:15;9.23;;;1.80;;
25073;SDS011;13066;52.042;5.648;2023-08-20T08:55:43;10.20;;;2.22;;
25073;SDS011;13066;52.042;5.648;2023-08-20T08:58:11;9.88;;;1.67;;
25073;SDS011;13066;52.042;5.648;2023-08-20T09:00:39;8.85;;;2.08;;
25073;SDS011;13066;52.042;5.648;2023-08-20T09:03:07;11.48;;;2.15;;
25073;SDS011;13066;52.042;5.648;2023-08-20T09:05:45;8.55;;;1.90;;
25073;SDS011;13066;52.042;5.648;2023-08-20T09:08:20;13.40;;;2.72;;
25073;SDS011;13066;52.042;5.648;2023-08-20T09:10:49;7.40;;;1.90;;
25073;SDS011;13066;52.042;5.648;2023-08-20T09:13:18;6.82;;;1.83;;
25073;SDS011;13066;52.042;5.648;2023-08-20T09:15:50;7.50;;;1.73;;
25073;SDS011;13066;52.042;5.648;2023-08-20T09:18:18;11.20;;;2.05;;
25073;SDS011;13066;52.042;5.648;2023-08-20T09:20:47;5.65;;;1.55;;
25073;SDS011;13066;52.042;5.648;2023-08-20T09:23:15;6.60;;;1.55;;
25073;SDS011;13066;52.042;5.648;2023-08-20T09:25:45;6.93;;;1.70;;
25073;SDS011;13066;52.042;5.648;2023-08-20T09:28:13;6.97;;;1.45;;
25073;SDS011;13066;52.042;5.648;2023-08-20T09:30:54;4.47;;;1.42;;
25073;SDS011;13066;52.042;5.648;2023-08-20T09:33:22;6.50;;;1.70;;
25073;SDS011;13066;52.042;5.648;2023-08-20T09:35:51;3.05;;;1.20;;
25073;SDS011;13066;52.042;5.648;2023-08-20T09:38:20;6.60;;;1.85;;
25073;SDS011;13066;52.042;5.648;2023-08-20T09:40:50;2.95;;;1.45;;
25073;SDS011;13066;52.042;5.648;2023-08-20T09:43:19;3.15;;;1.17;;
25073;SDS011;13066;52.042;5.648;2023-08-20T09:45:47;4.30;;;1.30;;
25073;SDS011;13066;52.042;5.648;2023-08-20T09:48:17;4.97;;;1.30;;
25073;SDS011;13066;52.042;5.648;2023-08-20T09:50:46;3.22;;;1.30;;
25073;SDS011;13066;52.042;5.648;2023-08-20T09:53:20;9.27;;;1.30;;
25073;SDS011;13066;52.042;5.648;2023-08-20T09:55:52;3.30;;;1.25;;
25073;SDS011;13066;52.042;5.648;2023-08-20T09:58:22;14.45;;;1.77;;
25073;SDS011;13066;52.042;5.648;2023-08-20T10:00:51;6.22;;;1.40;;
25073;SDS011;13066;52.042;5.648;2023-08-20T10:03:20;4.25;;;1.23;;
25073;SDS011;13066;52.042;5.648;2023-08-20T10:05:50;5.60;;;1.67;;
25073;SDS011;13066;52.042;5.648;2023-08-20T10:08:18;8.45;;;1.48;;
25073;SDS011;13066;52.042;5.648;2023-08-20T10:10:46;4.72;;;1.38;;
25073;SDS011;13066;52.042;5.648;2023-08-20T10:13:16;8.18;;;1.17;;
25073;SDS011;13066;52.042;5.648;2023-08-20T10:15:44;4.63;;;1.30;;
25073;SDS011;13066;52.042;5.648;2023-08-20T10:18:13;6.95;;;1.30;;
25073;SDS011;13066;52.042;5.648;2023-08-20T10:20:41;4.57;;;1.40;;
25073;SDS011;13066;52.042;5.648;2023-08-20T10:23:09;5.78;;;1.40;;
25073;SDS011;13066;52.042;5.648;2023-08-20T10:25:40;5.65;;;1.40;;
25073;SDS011;13066;52.042;5.648;2023-08-20T10:28:13;5.18;;;1.58;;
25073;SDS011;13066;52.042;5.648;2023-08-20T10:33:49;6.85;;;1.88;;
25073;SDS011;13066;52.042;5.648;2023-08-20T10:36:18;6.47;;;1.40;;
25073;SDS011;13066;52.042;5.648;2023-08-20T10:38:49;4.93;;;1.27;;
25073;SDS011;13066;52.042;5.648;2023-08-20T10:41:24;5.07;;;1.50;;
25073;SDS011;13066;52.042;5.648;2023-08-20T10:43:52;5.78;;;1.30;;
25073;SDS011;13066;52.042;5.648;2023-08-20T10:46:22;4.75;;;1.10;;
25073;SDS011;13066;52.042;5.648;2023-08-20T10:48:52;4.70;;;1.27;;
25073;SDS011;13066;52.042;5.648;2023-08-20T10:51:24;5.00;;;1.30;;
25073;SDS011;13066;52.042;5.648;2023-08-20T10:54:02;5.03;;;1.27;;
25073;SDS011;13066;52.042;5.648;2023-08-20T10:56:38;5.63;;;1.80;;
25073;SDS011;13066;52.042;5.648;2023-08-20T10:59:07;19.60;;;10.45;;
25073;SDS011;13066;52.042;5.648;2023-08-20T11:01:37;11.15;;;3.63;;
25073;SDS011;13066;52.042;5.648;2023-08-20T11:04:06;8.68;;;2.22;;
25073;SDS011;13066;52.042;5.648;2023-08-20T11:06:33;13.05;;;2.47;;
25073;SDS011;13066;52.042;5.648;2023-08-20T11:09:02;7.95;;;1.58;;
25073;SDS011;13066;52.042;5.648;2023-08-20T11:11:32;5.68;;;1.77;;
25073;SDS011;13066;52.042;5.648;2023-08-20T11:14:04;2.50;;;1.30;;
25073;SDS011;13066;52.042;5.648;2023-08-20T11:16:32;5.32;;;1.17;;
25073;SDS011;13066;52.042;5.648;2023-08-20T11:19:02;8.57;;;1.65;;
25073;SDS011;13066;52.042;5.648;2023-08-20T11:21:35;7.00;;;1.25;;
25073;SDS011;13066;52.042;5.648;2023-08-20T11:24:04;4.22;;;1.30;;
25073;SDS011;13066;52.042;5.648;2023-08-20T11:26:33;5.65;;;1.70;;
25073;SDS011;13066;52.042;5.648;2023-08-20T11:29:05;6.07;;;1.50;;
25073;SDS011;13066;52.042;5.648;2023-08-20T11:31:33;5.20;;;1.65;;
25073;SDS011;13066;52.042;5.648;2023-08-20T11:34:03;6.53;;;1.50;;
25073;SDS011;13066;52.042;5.648;2023-08-20T11:36:31;5.22;;;1.40;;
25073;SDS011;13066;52.042;5.648;2023-08-20T11:38:59;6.40;;;1.77;;
25073;SDS011;13066;52.042;5.648;2023-08-20T11:41:27;11.05;;;1.77;;
25073;SDS011;13066;52.042;5.648;2023-08-20T11:43:55;6.00;;;1.45;;
25073;SDS011;13066;52.042;5.648;2023-08-20T11:46:24;4.78;;;1.30;;
25073;SDS011;13066;52.042;5.648;2023-08-20T11:49:03;5.35;;;1.40;;
25073;SDS011;13066;52.042;5.648;2023-08-20T11:51:35;10.43;;;1.38;;
25073;SDS011;13066;52.042;5.648;2023-08-20T11:54:04;8.60;;;1.50;;
25073;SDS011;13066;52.042;5.648;2023-08-20T11:56:33;6.25;;;1.23;;
25073;SDS011;13066;52.042;5.648;2023-08-20T11:59:01;3.80;;;1.23;;
25073;SDS011;13066;52.042;5.648;2023-08-20T12:01:30;6.32;;;1.60;;
25073;SDS011;13066;52.042;5.648;2023-08-20T12:03:59;5.63;;;1.40;;
25073;SDS011;13066;52.042;5.648;2023-08-20T12:06:31;7.93;;;1.50;;
25073;SDS011;13066;52.042;5.648;2023-08-20T12:08:59;5.18;;;1.17;;
25073;SDS011;13066;52.042;5.648;2023-08-20T12:11:27;5.35;;;1.38;;
25073;SDS011;13066;52.042;5.648;2023-08-20T12:13:55;11.65;;;1.55;;
25073;SDS011;13066;52.042;5.648;2023-08-20T12:16:24;6.32;;;1.40;;
25073;SDS011;13066;52.042;5.648;2023-08-20T12:18:52;4.90;;;1.38;;
25073;SDS011;13066;52.042;5.648;2023-08-20T12:21:20;4.22;;;1.33;;
25073;SDS011;13066;52.042;5.648;2023-08-20T12:23:50;3.75;;;1.40;;
25073;SDS011;13066;52.042;5.648;2023-08-20T12:26:18;5.68;;;1.48;;
25073;SDS011;13066;52.042;5.648;2023-08-20T12:28:46;9.30;;;1.67;;
25073;SDS011;13066;52.042;5.648;2023-08-20T12:31:14;9.65;;;1.48;;
25073;SDS011;13066;52.042;5.648;2023-08-20T12:33:42;3.47;;;1.20;;
25073;SDS011;13066;52.042;5.648;2023-08-20T12:36:10;4.45;;;1.30;;
25073;SDS011;13066;52.042;5.648;2023-08-20T12:38:38;6.40;;;1.23;;
25073;SDS011;13066;52.042;5.648;2023-08-20T12:41:09;8.25;;;1.45;;
25073;SDS011;13066;52.042;5.648;2023-08-20T12:43:37;5.78;;;1.75;;
25073;SDS011;13066;52.042;5.648;2023-08-20T12:46:05;9.45;;;1.40;;
25073;SDS011;13066;52.042;5.648;2023-08-20T12:48:33;5.32;;;1.50;;
25073;SDS011;13066;52.042;5.648;2023-08-20T12:51:01;5.38;;;1.30;;
25073;SDS011;13066;52.042;5.648;2023-08-20T12:53:29;11.45;;;1.60;;
25073;SDS011;13066;52.042;5.648;2023-08-20T12:55:58;4.65;;;1.40;;
25073;SDS011;13066;52.042;5.648;2023-08-20T12:58:27;4.53;;;1.23;;
25073;SDS011;13066;52.042;5.648;2023-08-20T13:00:55;6.65;;;1.30;;
25073;SDS011;13066;52.042;5.648;2023-08-20T13:03:23;7.50;;;1.50;;
25073;SDS011;13066;52.042;5.648;2023-08-20T13:05:52;3.13;;;1.20;;
25073;SDS011;13066;52.042;5.648;2023-08-20T13:08:21;5.97;;;1.40;;
25073;SDS011;13066;52.042;5.648;2023-08-20T13:10:50;6.00;;;1.48;;
25073;SDS011;13066;52.042;5.648;2023-08-20T13:13:21;7.20;;;1.60;;
25073;SDS011;13066;52.042;5.648;2023-08-20T13:15:52;6.05;;;1.55;;
25073;SDS011;13066;52.042;5.648;2023-08-20T13:18:21;3.53;;;1.38;;
25073;SDS011;13066;52.042;5.648;2023-08-20T13:20:52;3.65;;;1.23;;
25073;SDS011;13066;52.042;5.648;2023-08-20T13:23:20;7.00;;;1.55;;
25073;SDS011;13066;52.042;5.648;2023-08-20T13:25:48;7.93;;;1.48;;
25073;SDS011;13066;52.042;5.648;2023-08-20T13:28:16;3.08;;;1.27;;
25073;SDS011;13066;52.042;5.648;2023-08-20T13:30:44;7.72;;;1.40;;
25073;SDS011;13066;52.042;5.648;2023-08-20T13:33:14;3.65;;;1.13;;
25073;SDS011;13066;52.042;5.648;2023-08-20T13:35:42;6.70;;;1.73;;
25073;SDS011;13066;52.042;5.648;2023-08-20T13:38:10;5.38;;;1.30;;
25073;SDS011;13066;52.042;5.648;2023-08-20T13:40:38;4.78;;;1.50;;
25073;SDS011;13066;52.042;5.648;2023-08-20T13:43:06;4.90;;;1.13;;
25073;SDS011;13066;52.042;5.648;2023-08-20T13:45:36;6.95;;;1.77;;
25073;SDS011;13066;52.042;5.648;2023-08-20T13:48:04;5.78;;;2.10;;
25073;SDS011;13066;52.042;5.648;2023-08-20T13:50:34;6.53;;;1.85;;
25073;SDS011;13066;52.042;5.648;2023-08-20T13:53:01;5.68;;;1.63;;
25073;SDS011;13066;52.042;5.648;2023-08-20T13:55:30;5.47;;;1.50;;
25073;SDS011;13066;52.042;5.648;2023-08-20T13:57:57;5.30;;;1.63;;
25073;SDS011;13066;52.042;5.648;2023-08-20T14:00:26;4.80;;;1.60;;
25073;SDS011;13066;52.042;5.648;2023-08-20T14:02:53;6.65;;;1.60;;
25073;SDS011;13066;52.042;5.648;2023-08-20T14:05:22;6.38;;;1.60;;
25073;SDS011;13066;52.042;5.648;2023-08-20T14:07:51;6.78;;;1.55;;
25073;SDS011;13066;52.042;5.648;2023-08-20T14:10:19;6.30;;;1.58;;
25073;SDS011;13066;52.042;5.648;2023-08-20T14:12:47;5.00;;;1.77;;
25073;SDS011;13066;52.042;5.648;2023-08-20T14:15:16;8.07;;;1.75;;
25073;SDS011;13066;52.042;5.648;2023-08-20T14:17:44;4.03;;;1.13;;
25073;SDS011;13066;52.042;5.648;2023-08-20T14:20:12;4.40;;;1.38;;
25073;SDS011;13066;52.042;5.648;2023-08-20T14:22:40;5.85;;;1.42;;
25073;SDS011;13066;52.042;5.648;2023-08-20T14:25:10;5.55;;;1.45;;
25073;SDS011;13066;52.042;5.648;2023-08-20T14:27:38;7.07;;;1.50;;
25073;SDS011;13066;52.042;5.648;2023-08-20T14:30:07;5.20;;;1.50;;
25073;SDS011;13066;52.042;5.648;2023-08-20T14:32:37;6.70;;;1.70;;
25073;SDS011;13066;52.042;5.648;2023-08-20T14:35:07;9.73;;;1.50;;
25073;SDS011;13066;52.042;5.648;2023-08-20T14:37:36;4.35;;;1.50;;
25073;SDS011;13066;52.042;5.648;2023-08-20T14:40:04;10.85;;;1.83;;
25073;SDS011;13066;52.042;5.648;2023-08-20T14:42:34;5.50;;;1.35;;
25073;SDS011;13066;52.042;5.648;2023-08-20T14:45:03;8.38;;;1.48;;
25073;SDS011;13066;52.042;5.648;2023-08-20T14:47:32;8.50;;;1.67;;
25073;SDS011;13066;52.042;5.648;2023-08-20T14:50:00;7.13;;;2.10;;
25073;SDS011;13066;52.042;5.648;2023-08-20T14:52:28;8.93;;;1.50;;
25073;SDS011;13066;52.042;5.648;2023-08-20T14:54:56;8.57;;;1.75;;
25073;SDS011;13066;52.042;5.648;2023-08-20T14:57:24;9.07;;;1.58;;
25073;SDS011;13066;52.042;5.648;2023-08-20T15:00:08;6.65;;;1.65;;